Time;durP1;ratioP1;P1;durP2;ratioP2;P2;SDS_P1;SDS_P2;PMS_P1;PMS_P2;Temp;Humidity;BMP_temperature;BMP_pressure;BME280_temperature;BME280_humidity;BME280_pressure;Samples;Min_cycle;Max_cycle;Signal;HPM_P1;HPM_P2
2022/10/20 00:00:55;;;;;;;36.27;26.87;;;;;;;;;;1819937;79;24214;-74
2022/10/20 00:03:24;;;;;;;35.27;26.57;;;;;;;;;;1819966;79;26315;-75
2022/10/20 00:05:52;;;;;;;33.90;26.63;;;;;;;;;;1820141;79;24215;-74
2022/10/20 00:08:21;;;;;;;35.53;26.33;;;;;;;;;;1819924;77;26327;-74
2022/10/20 00:10:53;;;;;;;35.33;28.13;;;;;;;;;;1819727;79;26271;-74
2022/10/20 00:13:22;;;;;;;27.90;24.47;;;;;;;;;;1819998;79;26740;-75
2022/10/20 00:15:50;;;;;;;33.97;26.53;;;;;;;;;;1815963;78;24213;-75
2022/10/20 00:18:19;;;;;;;33.97;25.10;;;;;;;;;;1785554;79;24227;-75
2022/10/20 00:20:48;;;;;;;35.97;27.27;;;;;;;;;;1819911;79;24229;-75
2022/10/20 00:26:21;;;;;;;34.50;26.77;;;;;;;;;;1819808;79;24315;-75
2022/10/20 00:28:50;;;;;;;36.53;26.67;;;;;;;;;;1800330;79;26840;-75
2022/10/20 00:31:19;;;;;;;32.87;26.33;;;;;;;;;;1819720;79;26764;-75
2022/10/20 00:33:49;;;;;;;32.37;26.37;;;;;;;;;;1819686;79;26322;-75
2022/10/20 00:36:18;;;;;;;35.23;26.77;;;;;;;;;;1819898;79;26733;-75
2022/10/20 00:38:47;;;;;;;31.70;24.83;;;;;;;;;;1820040;79;24221;-75
2022/10/20 00:41:17;;;;;;;32.07;25.50;;;;;;;;;;1800894;79;26275;-75
2022/10/20 00:43:47;;;;;;;32.17;25.27;;;;;;;;;;1821925;79;24163;-75
2022/10/20 00:46:17;;;;;;;33.37;25.10;;;;;;;;;;1802850;79;24206;-75
2022/10/20 00:48:47;;;;;;;33.97;23.90;;;;;;;;;;1801455;79;24293;-75
2022/10/20 00:51:16;;;;;;;33.83;25.03;;;;;;;;;;1819999;79;26792;-75
2022/10/20 00:53:45;;;;;;;34.03;24.60;;;;;;;;;;1803223;79;24159;-74
2022/10/20 00:56:15;;;;;;;31.03;24.50;;;;;;;;;;1821726;79;26215;-74
2022/10/20 00:58:43;;;;;;;35.30;24.90;;;;;;;;;;1822038;79;24751;-75
2022/10/20 01:01:13;;;;;;;31.80;24.60;;;;;;;;;;1802407;79;24272;-74
2022/10/20 01:03:44;;;;;;;30.70;24.57;;;;;;;;;;1820454;79;24251;-74
2022/10/20 01:06:14;;;;;;;34.07;25.83;;;;;;;;;;1821832;79;24624;-75
2022/10/20 01:08:42;;;;;;;30.73;25.43;;;;;;;;;;1821819;77;24229;-75
2022/10/20 01:11:15;;;;;;;30.73;24.57;;;;;;;;;;1821966;79;24241;-74
2022/10/20 01:13:46;;;;;;;32.83;24.63;;;;;;;;;;1808262;79;24234;-74
2022/10/20 01:16:16;;;;;;;32.10;24.83;;;;;;;;;;1803339;79;26722;-74
2022/10/20 01:18:46;;;;;;;36.27;23.97;;;;;;;;;;1807636;79;24933;-75
2022/10/20 01:21:20;;;;;;;35.10;25.67;;;;;;;;;;1803263;79;26282;-74
2022/10/20 01:23:54;;;;;;;36.87;25.60;;;;;;;;;;1821898;79;24162;-74
2022/10/20 01:26:47;;;;;;;31.53;25.53;;;;;;;;;;1821945;79;24162;-74
2022/10/20 01:29:17;;;;;;;32.67;24.57;;;;;;;;;;1805848;78;24187;-74
2022/10/20 01:31:47;;;;;;;31.80;24.83;;;;;;;;;;1815954;78;24229;-75
2022/10/20 01:34:17;;;;;;;33.80;26.03;;;;;;;;;;1816742;78;24766;-74
2022/10/20 01:36:47;;;;;;;36.83;26.10;;;;;;;;;;1819759;78;24230;-74
2022/10/20 01:39:17;;;;;;;35.90;24.87;;;;;;;;;;1820183;79;26741;-75
2022/10/20 01:41:48;;;;;;;31.53;24.70;;;;;;;;;;1819950;79;26291;-75
2022/10/20 01:44:17;;;;;;;31.90;25.63;;;;;;;;;;1820013;79;25321;-75
2022/10/20 01:46:46;;;;;;;33.60;26.10;;;;;;;;;;1821763;79;24155;-75
2022/10/20 01:49:15;;;;;;;35.53;25.40;;;;;;;;;;1818219;78;24185;-75
2022/10/20 01:51:44;;;;;;;33.87;25.13;;;;;;;;;;1818756;78;26266;-75
2022/10/20 01:54:21;;;;;;;39.87;26.33;;;;;;;;;;1787449;79;24182;-75
2022/10/20 01:56:52;;;;;;;33.77;26.03;;;;;;;;;;1807880;79;24164;-75
2022/10/20 01:59:23;;;;;;;41.23;27.23;;;;;;;;;;1819897;79;24308;-75
2022/10/20 02:01:59;;;;;;;35.03;25.90;;;;;;;;;;1824846;78;24179;-75
2022/10/20 02:04:29;;;;;;;41.47;26.60;;;;;;;;;;1819857;79;27149;-75
2022/10/20 02:06:58;;;;;;;37.43;26.70;;;;;;;;;;1819785;79;26275;-75
2022/10/20 02:09:28;;;;;;;38.80;26.07;;;;;;;;;;1820497;76;24233;-75
2022/10/20 02:11:58;;;;;;;34.03;26.23;;;;;;;;;;1805850;78;24684;-75
2022/10/20 02:14:27;;;;;;;36.73;27.37;;;;;;;;;;1801115;79;24319;-75
2022/10/20 02:16:57;;;;;;;35.37;26.60;;;;;;;;;;1819774;79;24214;-75
2022/10/20 02:19:27;;;;;;;33.67;26.83;;;;;;;;;;1820183;78;24213;-75
2022/10/20 02:21:56;;;;;;;41.97;26.50;;;;;;;;;;1820014;79;26586;-75
2022/10/20 02:24:26;;;;;;;36.10;25.73;;;;;;;;;;1800599;79;26323;-75
2022/10/20 02:26:56;;;;;;;31.73;25.87;;;;;;;;;;1806207;79;24234;-75
2022/10/20 02:29:27;;;;;;;31.97;25.50;;;;;;;;;;1819941;79;26276;-75
2022/10/20 02:31:55;;;;;;;31.40;24.83;;;;;;;;;;1820053;79;24222;-75
2022/10/20 02:34:26;;;;;;;35.03;26.83;;;;;;;;;;1800855;79;24201;-75
2022/10/20 02:36:56;;;;;;;38.17;27.73;;;;;;;;;;1819762;79;24209;-75
2022/10/20 02:39:26;;;;;;;36.23;26.00;;;;;;;;;;1820092;79;25305;-75
2022/10/20 02:41:55;;;;;;;37.47;28.10;;;;;;;;;;1820071;79;24206;-75
2022/10/20 02:44:24;;;;;;;31.50;24.57;;;;;;;;;;1820209;79;24295;-75
2022/10/20 02:46:52;;;;;;;33.50;26.47;;;;;;;;;;1785590;79;24831;-75
2022/10/20 02:49:21;;;;;;;41.90;27.50;;;;;;;;;;1775256;79;24202;-74
2022/10/20 02:51:50;;;;;;;36.70;26.63;;;;;;;;;;1819956;79;24202;-75
2022/10/20 02:54:18;;;;;;;39.77;27.33;;;;;;;;;;1785512;79;24226;-75
2022/10/20 02:56:46;;;;;;;41.07;26.70;;;;;;;;;;1775971;79;24206;-75
2022/10/20 02:59:16;;;;;;;39.43;29.67;;;;;;;;;;1820852;79;24267;-75
2022/10/20 03:01:44;;;;;;;45.03;28.83;;;;;;;;;;1820630;79;24832;-75
2022/10/20 03:04:13;;;;;;;41.03;30.27;;;;;;;;;;1821167;79;26798;-75
2022/10/20 03:06:42;;;;;;;50.07;31.23;;;;;;;;;;1817488;78;24267;-75
2022/10/20 03:09:10;;;;;;;40.77;28.13;;;;;;;;;;1777973;78;24805;-75
2022/10/20 03:11:39;;;;;;;42.27;29.83;;;;;;;;;;1822467;79;26284;-74
2022/10/20 03:14:07;;;;;;;46.23;30.30;;;;;;;;;;1804075;79;24517;-75
2022/10/20 03:16:36;;;;;;;52.27;29.83;;;;;;;;;;1822060;79;24241;-75
2022/10/20 03:19:04;;;;;;;45.53;30.20;;;;;;;;;;1821968;79;24357;-75
2022/10/20 03:21:32;;;;;;;46.73;29.90;;;;;;;;;;1802046;79;24268;-75
2022/10/20 03:24:01;;;;;;;49.30;31.07;;;;;;;;;;1786087;79;24543;-75
2022/10/20 03:26:29;;;;;;;39.70;29.60;;;;;;;;;;1801885;79;26340;-75
2022/10/20 03:28:58;;;;;;;49.07;32.43;;;;;;;;;;1801025;79;24217;-75
2022/10/20 03:31:26;;;;;;;47.03;29.57;;;;;;;;;;1785439;79;24281;-75
2022/10/20 03:33:54;;;;;;;41.17;29.90;;;;;;;;;;1819989;79;24191;-75
2022/10/20 03:36:23;;;;;;;53.40;32.20;;;;;;;;;;1777639;79;24456;-75
2022/10/20 03:38:51;;;;;;;46.43;32.00;;;;;;;;;;1820538;79;24202;-75
2022/10/20 03:41:20;;;;;;;51.17;31.73;;;;;;;;;;1820073;79;24860;-75
2022/10/20 03:43:49;;;;;;;56.73;33.73;;;;;;;;;;1800720;79;24272;-75
2022/10/20 03:46:17;;;;;;;56.60;33.70;;;;;;;;;;1819773;79;24706;-75
2022/10/20 03:48:45;;;;;;;55.03;33.50;;;;;;;;;;1816180;78;24789;-75
2022/10/20 03:51:14;;;;;;;50.30;31.23;;;;;;;;;;1801121;79;24940;-75
2022/10/20 03:53:42;;;;;;;56.90;33.20;;;;;;;;;;1800488;78;24276;-75
2022/10/20 03:56:12;;;;;;;52.83;31.47;;;;;;;;;;1820043;79;25458;-75
2022/10/20 03:58:41;;;;;;;47.90;32.83;;;;;;;;;;1761850;79;26300;-75
2022/10/20 04:01:12;;;;;;;44.37;31.10;;;;;;;;;;1776744;79;614055;-75
2022/10/20 04:03:40;;;;;;;45.97;31.87;;;;;;;;;;1713562;83;26354;-74
2022/10/20 04:06:09;;;;;;;52.60;33.57;;;;;;;;;;1712123;84;26899;-75
2022/10/20 04:08:37;;;;;;;50.40;30.30;;;;;;;;;;1713650;80;26357;-74
2022/10/20 04:11:06;;;;;;;44.73;28.47;;;;;;;;;;1712119;84;26395;-74
2022/10/20 04:13:34;;;;;;;45.50;30.37;;;;;;;;;;1666770;84;26329;-75
2022/10/20 04:16:03;;;;;;;49.43;31.60;;;;;;;;;;1740734;82;24729;-75
2022/10/20 04:18:31;;;;;;;51.80;32.47;;;;;;;;;;1725674;82;24240;-75
2022/10/20 04:20:59;;;;;;;52.10;33.30;;;;;;;;;;1740505;82;24746;-74
2022/10/20 04:23:28;;;;;;;55.27;34.57;;;;;;;;;;1687612;84;24269;-74
2022/10/20 04:25:56;;;;;;;54.57;33.20;;;;;;;;;;1722538;82;26294;-75
2022/10/20 04:28:25;;;;;;;65.63;32.90;;;;;;;;;;1705673;83;24754;-74
2022/10/20 04:30:53;;;;;;;59.23;36.10;;;;;;;;;;1740419;82;26368;-75
2022/10/20 04:33:21;;;;;;;56.07;34.57;;;;;;;;;;1667009;84;24238;-74
2022/10/20 04:35:51;;;;;;;49.97;32.83;;;;;;;;;;1740754;82;26764;-75
2022/10/20 04:38:20;;;;;;;49.13;31.23;;;;;;;;;;1705075;84;24297;-74
2022/10/20 04:40:54;;;;;;;47.97;30.83;;;;;;;;;;1740494;82;26372;-75
2022/10/20 04:43:23;;;;;;;61.57;35.57;;;;;;;;;;1726147;82;24249;-75
2022/10/20 04:45:52;;;;;;;52.27;32.30;;;;;;;;;;1745906;82;24392;-74
2022/10/20 04:48:21;;;;;;;58.20;33.83;;;;;;;;;;1687738;84;24313;-74
2022/10/20 04:50:51;;;;;;;55.37;32.93;;;;;;;;;;1745778;82;24218;-75
2022/10/20 04:53:20;;;;;;;66.87;34.60;;;;;;;;;;1687661;84;24737;-75
2022/10/20 04:55:54;;;;;;;63.73;34.90;;;;;;;;;;1740792;82;24222;-75
2022/10/20 04:58:23;;;;;;;74.23;37.33;;;;;;;;;;1732877;82;26380;-74
2022/10/20 05:00:51;;;;;;;62.20;35.33;;;;;;;;;;1745375;82;24226;-74
2022/10/20 05:03:20;;;;;;;50.23;32.57;;;;;;;;;;1733668;82;24272;-75
2022/10/20 05:05:49;;;;;;;57.73;33.00;;;;;;;;;;1740403;82;26302;-75
2022/10/20 05:08:17;;;;;;;54.80;34.43;;;;;;;;;;1666766;84;26419;-75
2022/10/20 05:10:46;;;;;;;105.30;40.23;;;;;;;;;;1745720;80;24270;-75
2022/10/20 05:13:14;;;;;;;70.83;34.63;;;;;;;;;;1725874;83;24240;-75
2022/10/20 05:15:42;;;;;;;52.07;32.30;;;;;;;;;;1745305;82;24328;-75
2022/10/20 05:18:11;;;;;;;53.70;32.37;;;;;;;;;;1660495;84;26388;-74
2022/10/20 05:20:41;;;;;;;55.87;31.57;;;;;;;;;;1740990;82;24261;-75
2022/10/20 05:23:09;;;;;;;46.70;30.23;;;;;;;;;;1733370;82;26886;-75
2022/10/20 05:25:39;;;;;;;47.33;29.27;;;;;;;;;;1740251;82;24265;-75
2022/10/20 05:28:07;;;;;;;58.77;33.23;;;;;;;;;;1733434;82;24252;-75
2022/10/20 05:30:36;;;;;;;53.73;33.07;;;;;;;;;;1740363;82;26672;-75
2022/10/20 05:33:04;;;;;;;53.63;31.53;;;;;;;;;;1733521;82;26315;-75
2022/10/20 05:35:33;;;;;;;42.10;28.73;;;;;;;;;;1740076;82;24317;-75
2022/10/20 05:38:01;;;;;;;47.20;32.30;;;;;;;;;;1725670;82;26310;-75
2022/10/20 05:40:30;;;;;;;49.93;30.83;;;;;;;;;;1739173;82;26357;-75
2022/10/20 05:42:58;;;;;;;55.80;32.67;;;;;;;;;;1733237;82;26322;-75
2022/10/20 05:45:27;;;;;;;63.00;34.73;;;;;;;;;;1739779;82;24319;-74
2022/10/20 05:47:55;;;;;;;50.57;32.40;;;;;;;;;;1733477;82;24436;-75
2022/10/20 05:50:24;;;;;;;74.13;38.93;;;;;;;;;;1721976;82;26299;-76
2022/10/20 05:52:53;;;;;;;48.20;33.63;;;;;;;;;;1725933;82;26458;-75
2022/10/20 05:55:21;;;;;;;38.20;30.30;;;;;;;;;;1745051;82;26307;-75
2022/10/20 05:57:50;;;;;;;40.53;28.47;;;;;;;;;;1733590;82;26819;-74
2022/10/20 06:00:28;;;;;;;47.80;29.20;;;;;;;;;;1721703;82;26370;-75
2022/10/20 06:02:59;;;;;;;41.23;24.53;;;;;;;;;;1724962;82;26697;-74
2022/10/20 06:05:22;;;;;;;37.53;25.10;;;;;;;;;;1720505;82;26312;-75
2022/10/20 06:07:52;;;;;;;43.63;26.03;;;;;;;;;;1733078;82;26306;-75
2022/10/20 06:10:24;;;;;;;41.93;26.30;;;;;;;;;;1745686;80;24776;-75
2022/10/20 06:12:53;;;;;;;40.83;26.80;;;;;;;;;;1727683;82;26286;-75
2022/10/20 06:15:22;;;;;;;33.03;22.17;;;;;;;;;;1747834;82;26248;-75
2022/10/20 06:17:50;;;;;;;30.40;20.13;;;;;;;;;;1727446;83;26320;-77
2022/10/20 06:20:19;;;;;;;30.07;19.83;;;;;;;;;;1747550;82;26238;-75
2022/10/20 06:22:47;;;;;;;31.57;20.13;;;;;;;;;;1727720;83;26258;-75
2022/10/20 06:25:16;;;;;;;30.53;19.30;;;;;;;;;;1722794;82;24276;-75
2022/10/20 06:27:49;;;;;;;26.37;18.40;;;;;;;;;;1733127;82;26379;-76
2022/10/20 06:30:17;;;;;;;34.40;19.13;;;;;;;;;;1742322;82;26306;-75
2022/10/20 06:32:47;;;;;;;29.93;18.03;;;;;;;;;;1668582;84;26331;-76
2022/10/20 06:35:15;;;;;;;25.77;17.07;;;;;;;;;;1746221;82;26287;-76
2022/10/20 06:37:43;;;;;;;26.17;14.93;;;;;;;;;;1733434;82;24240;-76
2022/10/20 06:40:13;;;;;;;32.47;16.00;;;;;;;;;;1746540;82;26761;-77
2022/10/20 06:42:41;;;;;;;27.27;16.23;;;;;;;;;;1727721;83;26865;-79
2022/10/20 06:45:10;;;;;;;32.43;14.90;;;;;;;;;;1701616;82;26657;-77
2022/10/20 06:47:39;;;;;;;27.97;14.17;;;;;;;;;;1730954;83;26251;-77
2022/10/20 06:50:10;;;;;;;29.17;13.83;;;;;;;;;;1745341;82;26311;-77
2022/10/20 06:52:38;;;;;;;33.13;13.97;;;;;;;;;;1730248;83;26297;-76
2022/10/20 06:55:09;;;;;;;28.60;13.63;;;;;;;;;;1748945;82;26294;-77
2022/10/20 06:57:37;;;;;;;27.30;13.53;;;;;;;;;;1721493;83;26297;-77
2022/10/20 07:00:10;;;;;;;25.63;12.83;;;;;;;;;;1711569;83;26868;-77
2022/10/20 07:02:39;;;;;;;35.40;13.07;;;;;;;;;;1741428;82;26343;-77
2022/10/20 07:05:08;;;;;;;20.20;11.17;;;;;;;;;;1681557;84;26973;-76
2022/10/20 07:07:37;;;;;;;26.47;12.07;;;;;;;;;;1740653;82;27443;-77
2022/10/20 07:10:06;;;;;;;25.83;12.33;;;;;;;;;;1732650;80;26793;-77
2022/10/20 07:12:35;;;;;;;25.43;12.37;;;;;;;;;;1740681;82;26306;-77
2022/10/20 07:15:03;;;;;;;25.43;12.20;;;;;;;;;;1733391;82;26380;-77
2022/10/20 07:17:32;;;;;;;22.00;10.77;;;;;;;;;;1746007;82;27010;-77
2022/10/20 07:20:00;;;;;;;24.53;11.73;;;;;;;;;;1705887;83;26599;-77
2022/10/20 07:22:32;;;;;;;25.10;10.13;;;;;;;;;;1699965;82;26298;-77
2022/10/20 07:25:04;;;;;;;24.53;11.23;;;;;;;;;;1726171;83;26321;-77
2022/10/20 07:27:29;;;;;;;21.83;11.17;;;;;;;;;;1722618;82;26287;-77
2022/10/20 07:29:58;;;;;;;24.63;15.30;;;;;;;;;;1666523;84;27602;-76
2022/10/20 07:32:30;;;;;;;23.47;12.90;;;;;;;;;;1740872;82;26372;-79
2022/10/20 07:34:59;;;;;;;21.17;14.40;;;;;;;;;;1726211;83;26355;-78
2022/10/20 07:37:27;;;;;;;23.80;13.13;;;;;;;;;;1739024;82;26397;-79
2022/10/20 07:39:55;;;;;;;20.37;14.90;;;;;;;;;;1732534;82;26307;-78
2022/10/20 07:42:24;;;;;;;21.70;15.00;;;;;;;;;;1739438;82;26298;-79
2022/10/20 07:44:53;;;;;;;30.17;15.40;;;;;;;;;;1733552;82;26315;-79
2022/10/20 07:47:21;;;;;;;19.03;13.50;;;;;;;;;;1745913;82;26290;-79
2022/10/20 07:49:51;;;;;;;19.53;12.90;;;;;;;;;;1733248;82;26341;-79
2022/10/20 07:52:19;;;;;;;20.73;13.87;;;;;;;;;;1722154;82;26934;-78
2022/10/20 07:54:47;;;;;;;18.53;16.23;;;;;;;;;;1725583;83;26866;-80
2022/10/20 07:57:16;;;;;;;23.93;13.23;;;;;;;;;;1722226;82;26583;-81
2022/10/20 07:59:44;;;;;;;25.30;16.13;;;;;;;;;;1732482;82;26687;-80
2022/10/20 08:02:14;;;;;;;22.27;16.87;;;;;;;;;;1746205;82;26399;-79
2022/10/20 08:04:44;;;;;;;24.20;14.57;;;;;;;;;;1660403;84;26399;-80
2022/10/20 08:07:12;;;;;;;25.83;19.47;;;;;;;;;;1739280;82;26378;-80
2022/10/20 08:09:42;;;;;;;26.67;19.60;;;;;;;;;;1725730;82;26294;-79
2022/10/20 08:12:11;;;;;;;25.10;17.37;;;;;;;;;;1745541;80;26428;-79
2022/10/20 08:14:39;;;;;;;25.27;17.73;;;;;;;;;;1725652;82;24717;-79
2022/10/20 08:17:08;;;;;;;25.83;16.87;;;;;;;;;;1746083;82;26298;-79
2022/10/20 08:19:37;;;;;;;23.67;16.03;;;;;;;;;;1726034;82;26306;-79
2022/10/20 08:22:06;;;;;;;19.27;15.50;;;;;;;;;;1740441;82;24234;-79
2022/10/20 08:24:34;;;;;;;24.27;15.97;;;;;;;;;;1725813;83;26581;-79
2022/10/20 08:27:02;;;;;;;18.43;15.43;;;;;;;;;;1745536;82;26260;-79
2022/10/20 08:29:31;;;;;;;19.10;14.80;;;;;;;;;;1688052;84;26320;-79
2022/10/20 08:31:59;;;;;;;19.97;14.13;;;;;;;;;;1741123;82;26291;-80
2022/10/20 08:34:28;;;;;;;20.67;15.67;;;;;;;;;;1733265;82;26308;-79
2022/10/20 08:36:56;;;;;;;17.07;14.57;;;;;;;;;;1701124;82;26844;-79
2022/10/20 08:39:25;;;;;;;30.23;28.03;;;;;;;;;;1665911;84;26993;-80
2022/10/20 08:41:54;;;;;;;30.27;27.77;;;;;;;;;;1745706;82;26634;-80
2022/10/20 08:44:24;;;;;;;28.53;26.23;;;;;;;;;;1725792;82;26379;-79
2022/10/20 08:46:56;;;;;;;22.33;20.37;;;;;;;;;;1740428;82;26792;-79
2022/10/20 08:49:26;;;;;;;22.67;20.60;;;;;;;;;;1725699;82;26971;-80
2022/10/20 08:51:55;;;;;;;27.93;25.43;;;;;;;;;;1740596;82;27545;-80
2022/10/20 08:54:24;;;;;;;25.73;23.67;;;;;;;;;;1727459;82;26286;-80
2022/10/20 08:56:52;;;;;;;19.90;18.23;;;;;;;;;;1742295;82;24198;-80
2022/10/20 08:59:24;;;;;;;20.87;19.03;;;;;;;;;;1684581;83;26306;-79
2022/10/20 09:01:52;;;;;;;19.90;18.10;;;;;;;;;;1723398;82;26372;-79
2022/10/20 09:04:22;;;;;;;21.33;19.67;;;;;;;;;;1725618;82;26378;-81
2022/10/20 09:06:52;;;;;;;24.70;22.90;;;;;;;;;;1746013;82;26671;-80
2022/10/20 09:09:24;;;;;;;21.37;19.73;;;;;;;;;;1666813;84;26418;-80
2022/10/20 09:11:57;;;;;;;18.60;16.97;;;;;;;;;;1739804;80;26378;-80
2022/10/20 09:14:26;;;;;;;21.37;18.63;;;;;;;;;;1688059;84;26846;-79
2022/10/20 09:16:54;;;;;;;20.00;18.30;;;;;;;;;;1740185;82;26323;-78
2022/10/20 09:19:23;;;;;;;20.73;18.97;;;;;;;;;;1733376;82;27368;-78
2022/10/20 09:21:53;;;;;;;25.03;23.33;;;;;;;;;;1747553;82;26830;-79
2022/10/20 09:24:23;;;;;;;25.00;22.97;;;;;;;;;;1726034;83;26485;-79
2022/10/20 09:26:51;;;;;;;28.93;27.13;;;;;;;;;;1746790;82;26839;-79
2022/10/20 09:29:21;;;;;;;23.47;21.67;;;;;;;;;;1726404;83;26364;-79
2022/10/20 09:31:52;;;;;;;21.43;20.07;;;;;;;;;;1741680;82;26372;-78
2022/10/20 09:34:26;;;;;;;24.17;22.73;;;;;;;;;;1688231;84;26363;-79
2022/10/20 09:36:58;;;;;;;24.90;23.53;;;;;;;;;;1740487;82;26296;-79
2022/10/20 09:39:28;;;;;;;23.03;21.27;;;;;;;;;;1712365;83;26371;-79
2022/10/20 09:42:02;;;;;;;20.83;19.53;;;;;;;;;;1741674;82;26767;-78
2022/10/20 09:44:30;;;;;;;26.03;24.13;;;;;;;;;;1732994;82;26311;-79
2022/10/20 09:47:00;;;;;;;24.93;23.63;;;;;;;;;;1739747;82;26794;-79
2022/10/20 09:49:29;;;;;;;22.67;21.07;;;;;;;;;;1725504;83;26327;-79
2022/10/20 09:51:59;;;;;;;24.27;22.60;;;;;;;;;;1740635;82;26843;-79
2022/10/20 09:54:29;;;;;;;24.37;22.50;;;;;;;;;;1725528;82;26317;-79
2022/10/20 09:57:05;;;;;;;18.33;16.93;;;;;;;;;;1702321;82;26256;-79
2022/10/20 09:59:35;;;;;;;23.57;22.07;;;;;;;;;;1733138;82;25416;-80
2022/10/20 10:02:04;;;;;;;19.90;18.77;;;;;;;;;;1722314;82;24226;-80
2022/10/20 10:04:34;;;;;;;18.03;16.83;;;;;;;;;;1733563;82;26313;-79
2022/10/20 10:07:04;;;;;;;19.37;17.67;;;;;;;;;;1695320;84;26337;-79
2022/10/20 10:09:33;;;;;;;9.07;7.93;;;;;;;;;;1688350;84;26312;-79
2022/10/20 10:12:04;;;;;;;9.33;8.33;;;;;;;;;;1724702;82;26349;-79
2022/10/20 10:14:35;;;;;;;11.03;9.37;;;;;;;;;;1735767;82;26874;-79
2022/10/20 10:17:05;;;;;;;11.60;10.40;;;;;;;;;;1752151;81;24279;-79
2022/10/20 10:19:34;;;;;;;9.57;8.77;;;;;;;;;;1737313;82;24240;-80
2022/10/20 10:22:03;;;;;;;9.80;8.80;;;;;;;;;;1751045;82;24241;-78
2022/10/20 10:24:42;;;;;;;10.43;9.57;;;;;;;;;;1741153;82;24231;-80
2022/10/20 10:27:21;;;;;;;9.93;9.20;;;;;;;;;;1753158;82;24232;-80
2022/10/20 10:29:50;;;;;;;9.47;8.87;;;;;;;;;;1739818;82;24268;-80
2022/10/20 10:32:20;;;;;;;10.37;9.60;;;;;;;;;;1755375;82;24297;-80
2022/10/20 10:34:58;;;;;;;10.03;9.43;;;;;;;;;;1717009;83;24269;-81
2022/10/20 10:37:27;;;;;;;10.40;9.80;;;;;;;;;;1751695;82;24237;-80
2022/10/20 10:39:57;;;;;;;9.50;8.93;;;;;;;;;;1735337;82;26798;-80
2022/10/20 10:42:33;;;;;;;8.93;8.40;;;;;;;;;;1750926;82;24236;-81
2022/10/20 10:45:03;;;;;;;9.23;8.53;;;;;;;;;;1715075;82;25271;-81
2022/10/20 10:47:33;;;;;;;8.60;8.00;;;;;;;;;;1724400;82;24222;-81
2022/10/20 10:50:04;;;;;;;10.17;9.37;;;;;;;;;;1713801;83;24570;-80
2022/10/20 10:52:36;;;;;;;8.70;8.00;;;;;;;;;;1750348;82;24245;-80
2022/10/20 10:55:08;;;;;;;9.30;8.80;;;;;;;;;;1690401;83;24261;-81
2022/10/20 10:57:38;;;;;;;8.87;8.37;;;;;;;;;;1724376;82;24214;-80
2022/10/20 11:00:11;;;;;;;10.20;9.60;;;;;;;;;;1691162;83;24257;-80
2022/10/20 11:02:49;;;;;;;10.00;9.40;;;;;;;;;;1749522;82;24249;-81
2022/10/20 11:05:39;;;;;;;10.93;10.23;;;;;;;;;;1690293;83;27341;-80
2022/10/20 11:08:11;;;;;;;10.93;10.33;;;;;;;;;;1739816;82;24323;-81
2022/10/20 11:10:41;;;;;;;8.47;7.90;;;;;;;;;;1735509;82;24260;-81
2022/10/20 11:13:13;;;;;;;9.57;8.97;;;;;;;;;;1750910;80;24287;-81
2022/10/20 11:15:46;;;;;;;10.63;9.97;;;;;;;;;;1715294;83;24382;-80
2022/10/20 11:18:16;;;;;;;11.17;10.57;;;;;;;;;;1727133;82;26821;-80
2022/10/20 11:20:47;;;;;;;10.40;9.90;;;;;;;;;;1695432;83;24258;-80
2022/10/20 11:23:37;;;;;;;10.63;10.03;;;;;;;;;;1750723;82;27315;-80
2022/10/20 11:26:08;;;;;;;11.43;10.73;;;;;;;;;;1743919;81;24663;-80
2022/10/20 11:28:43;;;;;;;10.20;9.50;;;;;;;;;;1712500;82;24259;-81
2022/10/20 11:31:08;;;;;;;10.60;10.00;;;;;;;;;;1727345;82;24234;-81
2022/10/20 11:33:38;;;;;;;11.47;10.97;;;;;;;;;;1721737;83;24315;-81
2022/10/20 11:36:09;;;;;;;10.20;9.70;;;;;;;;;;1727093;82;24606;-81
2022/10/20 11:38:39;;;;;;;10.93;10.43;;;;;;;;;;1751915;82;24241;-81
2022/10/20 11:41:09;;;;;;;11.20;10.70;;;;;;;;;;1690521;83;24319;-82
2022/10/20 11:43:39;;;;;;;9.93;9.53;;;;;;;;;;1715732;83;24305;-80
2022/10/20 11:46:09;;;;;;;10.37;9.87;;;;;;;;;;1725157;82;24330;-81
2022/10/20 11:48:40;;;;;;;10.10;9.50;;;;;;;;;;1715294;83;24802;-80
2022/10/20 11:51:13;;;;;;;6.90;6.50;;;;;;;;;;1750565;82;24316;-80
2022/10/20 11:53:47;;;;;;;10.67;10.13;;;;;;;;;;1713339;83;24254;-81
2022/10/20 11:56:25;;;;;;;11.07;10.57;;;;;;;;;;1725038;82;24217;-80
2022/10/20 11:59:03;;;;;;;10.60;9.87;;;;;;;;;;1715371;83;26803;-80
2022/10/20 12:01:34;;;;;;;10.57;10.07;;;;;;;;;;1724791;82;24311;-79
2022/10/20 12:04:27;;;;;;;10.70;10.17;;;;;;;;;;1715224;83;24293;-79
2022/10/20 12:06:59;;;;;;;11.37;10.67;;;;;;;;;;1720916;82;24283;-80
2022/10/20 12:09:51;;;;;;;10.30;9.83;;;;;;;;;;1698172;83;24321;-78
2022/10/20 12:12:21;;;;;;;10.60;9.97;;;;;;;;;;1692977;83;24379;-79
2022/10/20 12:14:51;;;;;;;10.30;9.50;;;;;;;;;;1752027;82;24749;-79
2022/10/20 12:17:23;;;;;;;9.97;9.47;;;;;;;;;;1715334;82;27028;-80
2022/10/20 12:19:52;;;;;;;9.73;9.20;;;;;;;;;;1724491;82;24358;-80
2022/10/20 12:22:40;;;;;;;13.20;12.53;;;;;;;;;;1736417;82;24720;-81
2022/10/20 12:25:25;;;;;;;8.20;7.77;;;;;;;;;;1751343;82;24863;-80
2022/10/20 12:28:12;;;;;;;8.93;8.33;;;;;;;;;;1713986;83;24759;-81
2022/10/20 12:30:45;;;;;;;8.13;7.43;;;;;;;;;;1751109;81;27017;-81
2022/10/20 12:33:18;;;;;;;8.33;7.93;;;;;;;;;;1736984;82;24828;-81
2022/10/20 12:36:04;;;;;;;9.07;8.47;;;;;;;;;;1751799;82;24261;-80
2022/10/20 12:38:33;;;;;;;10.47;9.77;;;;;;;;;;1750852;81;24311;-79
2022/10/20 12:41:02;;;;;;;11.13;10.33;;;;;;;;;;1726934;82;24216;-81
2022/10/20 12:43:36;;;;;;;11.87;11.00;;;;;;;;;;1691555;83;24332;-81
2022/10/20 12:46:07;;;;;;;10.83;10.10;;;;;;;;;;1747664;82;24217;-82
2022/10/20 12:48:38;;;;;;;11.60;10.50;;;;;;;;;;1715995;83;24343;-80
2022/10/20 12:51:09;;;;;;;11.70;10.90;;;;;;;;;;1705134;83;24253;-81
2022/10/20 12:53:38;;;;;;;10.77;9.97;;;;;;;;;;1752580;81;24209;-81
2022/10/20 12:56:09;;;;;;;10.87;9.93;;;;;;;;;;1736357;82;24213;-80
2022/10/20 12:58:39;;;;;;;11.70;10.60;;;;;;;;;;1752817;82;24221;-80
2022/10/20 13:01:10;;;;;;;12.10;10.97;;;;;;;;;;1669037;83;26667;-80
2022/10/20 13:03:45;;;;;;;10.27;9.47;;;;;;;;;;1748438;82;24261;-79
2022/10/20 13:06:32;;;;;;;14.83;13.50;;;;;;;;;;1737417;82;26777;-81
2022/10/20 13:09:19;;;;;;;11.10;10.23;;;;;;;;;;1751867;82;26416;-80
2022/10/20 13:12:10;;;;;;;13.60;12.80;;;;;;;;;;1697388;83;24227;-81
2022/10/20 13:14:45;;;;;;;13.57;12.60;;;;;;;;;;1701488;82;24358;-80
2022/10/20 13:17:18;;;;;;;13.80;12.67;;;;;;;;;;1745397;82;24205;-81
2022/10/20 13:19:48;;;;;;;14.07;13.07;;;;;;;;;;1726163;82;24765;-80
2022/10/20 13:22:33;;;;;;;13.07;11.07;;;;;;;;;;1745537;82;24194;-81
2022/10/20 13:25:02;;;;;;;13.63;12.63;;;;;;;;;;1725654;83;24189;-80
2022/10/20 13:27:31;;;;;;;12.57;11.67;;;;;;;;;;1742106;82;24189;-81
2022/10/20 13:30:00;;;;;;;12.70;11.60;;;;;;;;;;1715109;83;24610;-81
2022/10/20 13:32:30;;;;;;;10.70;9.70;;;;;;;;;;1717055;83;27011;-80
2022/10/20 13:35:04;;;;;;;10.67;9.57;;;;;;;;;;1741060;82;24257;-81
2022/10/20 13:37:40;;;;;;;12.67;11.53;;;;;;;;;;1683956;84;24356;-81
2022/10/20 13:40:12;;;;;;;11.17;10.30;;;;;;;;;;1744515;82;24245;-80
2022/10/20 13:42:44;;;;;;;11.60;10.60;;;;;;;;;;1708721;84;24324;-80
2022/10/20 13:45:17;;;;;;;11.47;10.73;;;;;;;;;;1718249;82;24213;-81
2022/10/20 13:47:50;;;;;;;12.07;11.27;;;;;;;;;;1709105;84;24320;-81
2022/10/20 13:50:21;;;;;;;12.07;11.17;;;;;;;;;;1742875;82;26275;-81
2022/10/20 13:52:50;;;;;;;11.27;10.43;;;;;;;;;;1726445;83;24239;-82
2022/10/20 13:55:21;;;;;;;12.00;11.10;;;;;;;;;;1744208;82;24245;-78
2022/10/20 13:57:54;;;;;;;11.17;10.57;;;;;;;;;;1729124;82;24977;-80
2022/10/20 14:00:23;;;;;;;10.27;9.57;;;;;;;;;;1746652;82;24225;-80
2022/10/20 14:02:54;;;;;;;6.37;5.87;;;;;;;;;;1721177;83;26420;-80
2022/10/20 14:05:23;;;;;;;6.33;5.73;;;;;;;;;;1748408;82;24221;-80
2022/10/20 14:07:52;;;;;;;7.10;6.53;;;;;;;;;;1725995;82;26298;-81
2022/10/20 14:10:26;;;;;;;8.07;7.37;;;;;;;;;;1744563;82;26372;-81
2022/10/20 14:12:55;;;;;;;7.77;7.17;;;;;;;;;;1717835;82;24244;-81
2022/10/20 14:15:26;;;;;;;6.03;4.70;;;;;;;;;;1746187;82;26397;-81
2022/10/20 14:17:59;;;;;;;5.47;4.23;;;;;;;;;;1705470;84;24365;-81
2022/10/20 14:20:29;;;;;;;5.50;4.80;;;;;;;;;;1744676;82;24296;-80
2022/10/20 14:22:59;;;;;;;6.77;6.27;;;;;;;;;;1733567;82;27093;-80
2022/10/20 14:25:29;;;;;;;5.93;5.53;;;;;;;;;;1745950;82;24714;-80
2022/10/20 14:27:59;;;;;;;7.27;6.57;;;;;;;;;;1733244;82;24248;-80
2022/10/20 14:30:30;;;;;;;7.73;7.13;;;;;;;;;;1745947;82;24232;-81
2022/10/20 14:33:20;;;;;;;6.80;6.20;;;;;;;;;;1725805;83;24252;-80
2022/10/20 14:35:51;;;;;;;8.03;7.40;;;;;;;;;;1731101;81;24515;-80
2022/10/20 14:38:21;;;;;;;6.80;6.27;;;;;;;;;;1748147;82;24190;-80
2022/10/20 14:40:50;;;;;;;7.03;6.50;;;;;;;;;;1707076;84;24826;-79
2022/10/20 14:43:21;;;;;;;5.90;5.60;;;;;;;;;;1742312;82;24205;-80